createdAt,value
2023-04-24T00:00:32.213Z,14.14
2023-04-24T00:03:22.288Z,13.95
2023-04-24T00:05:49.365Z,13.84
2023-04-24T00:08:16.835Z,13.75
2023-04-24T00:10:43.984Z,13.62
2023-04-24T00:13:11.196Z,13.46
2023-04-24T00:15:38.320Z,13.35
2023-04-24T00:18:05.720Z,13.25
2023-04-24T00:20:36.734Z,13.15
2023-04-24T00:23:04.208Z,13.08
2023-04-24T00:25:31.063Z,13.07
2023-04-24T00:27:58.317Z,13.00
2023-04-24T00:30:25.259Z,12.97
2023-04-24T00:32:54.821Z,13.00
2023-04-24T00:35:24.452Z,12.95
2023-04-24T00:37:54.063Z,12.94
2023-04-24T00:40:23.714Z,12.91
2023-04-24T00:42:51.143Z,12.88
2023-04-24T00:45:18.238Z,12.84
2023-04-24T00:47:46.760Z,12.78
2023-04-24T00:50:15.668Z,12.80
2023-04-24T00:52:43.069Z,12.76
2023-04-24T00:55:10.522Z,12.74
2023-04-24T00:57:38.484Z,12.67
2023-04-24T01:00:06.979Z,12.62
2023-04-24T01:02:35.839Z,12.61
2023-04-24T01:05:03.155Z,12.56
2023-04-24T01:07:33.265Z,12.54
2023-04-24T01:10:02.008Z,12.53
2023-04-24T01:12:29.737Z,12.49
2023-04-24T01:14:57.900Z,12.43
2023-04-24T01:17:25.202Z,12.35
2023-04-24T01:19:58.267Z,12.28
2023-04-24T01:22:25.516Z,12.23
2023-04-24T01:24:57.354Z,12.19
2023-04-24T01:27:24.640Z,12.11
2023-04-24T01:29:52.996Z,12.03
2023-04-24T01:32:20.997Z,11.97
2023-04-24T01:34:48.145Z,11.89
2023-04-24T01:37:17.841Z,11.76
2023-04-24T01:39:47.818Z,11.69
2023-04-24T01:42:15.938Z,11.62
2023-04-24T01:44:43.706Z,11.52
2023-04-24T01:47:14.134Z,11.43
2023-04-24T01:49:41.678Z,11.34
2023-04-24T01:52:09.175Z,11.25
2023-04-24T01:54:41.024Z,11.16
2023-04-24T01:57:08.489Z,11.06
2023-04-24T01:59:38.134Z,10.97
2023-04-24T02:02:05.436Z,10.98
2023-04-24T02:04:32.630Z,10.89
2023-04-24T02:07:00.082Z,10.83
2023-04-24T02:09:27.002Z,10.92
2023-04-24T02:11:57.479Z,10.93
2023-04-24T02:14:24.749Z,10.97
2023-04-24T02:16:54.545Z,10.92
2023-04-24T02:19:21.466Z,10.86
2023-04-24T02:21:51.725Z,10.86
2023-04-24T02:24:21.089Z,10.80
2023-04-24T02:26:51.452Z,10.76
2023-04-24T02:29:19.057Z,10.69
2023-04-24T02:31:46.396Z,10.62
2023-04-24T02:34:15.168Z,10.57
2023-04-24T02:36:42.536Z,10.53
2023-04-24T02:39:09.496Z,10.45
2023-04-24T02:41:36.753Z,10.44
2023-04-24T02:44:03.603Z,10.50
2023-04-24T02:46:33.931Z,10.40
2023-04-24T02:49:01.273Z,10.38
2023-04-24T02:51:28.455Z,10.41
2023-04-24T02:53:57.832Z,10.46
2023-04-24T02:56:28.407Z,10.52
2023-04-24T02:58:57.498Z,10.48
2023-04-24T03:01:27.260Z,10.45
2023-04-24T03:03:57.014Z,10.39
2023-04-24T03:06:24.450Z,10.36
2023-04-24T03:08:53.692Z,10.32
2023-04-24T03:11:26.295Z,10.23
2023-04-24T03:13:53.412Z,10.23
2023-04-24T03:16:25.498Z,10.16
2023-04-24T03:18:58.051Z,10.09
2023-04-24T03:21:28.452Z,10.06
2023-04-24T03:23:55.860Z,9.99
2023-04-24T03:26:26.073Z,9.97
2023-04-24T03:29:04.726Z,10.00
2023-04-24T03:31:32.016Z,10.03
2023-04-24T03:33:59.004Z,10.03
2023-04-24T03:36:27.170Z,9.99
2023-04-24T03:39:00.257Z,9.99
2023-04-24T03:41:31.318Z,10.03
2023-04-24T03:44:24.381Z,10.14
2023-04-24T03:46:54.604Z,10.19
2023-04-24T03:49:26.887Z,10.21
2023-04-24T03:51:54.409Z,10.14
2023-04-24T03:54:24.146Z,10.17
2023-04-24T03:56:52.990Z,10.19
2023-04-24T03:59:23.392Z,10.21
2023-04-24T04:02:05.658Z,10.25
2023-04-24T04:04:33.063Z,10.25
2023-04-24T04:07:03.748Z,10.25
2023-04-24T04:09:31.364Z,10.31
2023-04-24T04:11:58.525Z,10.53
2023-04-24T04:14:25.485Z,10.65
2023-04-24T04:16:54.827Z,10.85
2023-04-24T04:19:22.348Z,11.34
2023-04-24T04:21:54.584Z,11.57
2023-04-24T04:24:39.171Z,11.63
2023-04-24T04:27:07.409Z,11.79
2023-04-24T04:29:42.241Z,12.00
2023-04-24T04:32:12.097Z,12.21
2023-04-24T04:34:39.161Z,12.43
2023-04-24T04:37:07.686Z,12.59
2023-04-24T04:39:49.747Z,12.72
2023-04-24T04:42:24.736Z,12.89
2023-04-24T04:44:52.203Z,12.98
2023-04-24T04:47:24.858Z,13.09
2023-04-24T04:49:54.084Z,13.16
2023-04-24T04:52:26.869Z,13.15
2023-04-24T04:55:06.555Z,13.17
2023-04-24T04:57:54.009Z,13.16
2023-04-24T05:00:25.503Z,13.22
2023-04-24T05:02:54.292Z,13.24
2023-04-24T05:05:21.660Z,13.26
2023-04-24T05:07:49.922Z,13.29
2023-04-24T05:10:17.028Z,13.44
2023-04-24T05:12:46.270Z,13.67
2023-04-24T05:15:13.449Z,14.21
2023-04-24T05:17:41.673Z,14.38
2023-04-24T05:20:10.866Z,14.45
2023-04-24T05:22:38.966Z,14.52
2023-04-24T05:25:06.864Z,14.76
2023-04-24T05:27:57.391Z,14.76
2023-04-24T05:30:24.291Z,14.98
2023-04-24T05:32:51.615Z,15.24
2023-04-24T05:35:19.828Z,15.12
2023-04-24T05:37:47.358Z,15.29
2023-04-24T05:40:17.396Z,15.46
2023-04-24T05:42:46.891Z,15.95
2023-04-24T05:45:17.842Z,15.89
2023-04-24T05:47:45.230Z,15.75
2023-04-24T05:50:12.416Z,15.69
2023-04-24T05:52:39.680Z,15.67
2023-04-24T05:55:19.577Z,15.52
2023-04-24T05:57:48.258Z,15.41
2023-04-24T06:00:15.592Z,15.37
2023-04-24T06:02:50.336Z,15.25
2023-04-24T06:05:17.574Z,15.21
2023-04-24T06:07:47.273Z,15.00
2023-04-24T06:10:14.244Z,15.00
2023-04-24T06:12:44.461Z,14.83
2023-04-24T06:15:19.094Z,14.77
2023-04-24T06:17:52.937Z,14.68
2023-04-24T06:20:21.373Z,14.65
2023-04-24T06:22:49.059Z,14.61
2023-04-24T06:25:16.222Z,14.74
2023-04-24T06:27:44.400Z,14.68
2023-04-24T06:30:11.573Z,14.72
2023-04-24T06:32:39.450Z,14.68
2023-04-24T06:35:08.515Z,14.79
2023-04-24T06:37:35.774Z,14.86
2023-04-24T06:40:03.087Z,14.94
2023-04-24T06:42:30.677Z,15.09
2023-04-24T06:44:57.562Z,15.31
2023-04-24T06:47:25.153Z,15.91
2023-04-24T06:49:53.610Z,16.78
2023-04-24T06:52:20.970Z,16.80
2023-04-24T06:54:48.043Z,16.58
2023-04-24T06:57:17.093Z,16.84
2023-04-24T06:59:44.269Z,17.13
2023-04-24T07:02:11.781Z,17.30
2023-04-24T07:04:41.538Z,18.49
2023-04-24T07:07:10.562Z,19.62
2023-04-24T07:09:43.479Z,20.06
2023-04-24T07:12:14.479Z,19.95
2023-04-24T07:14:41.796Z,19.34
2023-04-24T07:17:09.067Z,19.99
2023-04-24T07:19:38.705Z,19.33
2023-04-24T07:22:06.160Z,18.20
2023-04-24T07:24:33.785Z,17.87
2023-04-24T07:27:07.503Z,17.47
2023-04-24T07:29:34.690Z,17.29
2023-04-24T07:32:04.088Z,16.88
2023-04-24T07:34:31.416Z,16.94
2023-04-24T07:36:58.786Z,16.74
2023-04-24T07:39:25.879Z,16.52
2023-04-24T07:41:53.203Z,16.38
2023-04-24T07:44:22.309Z,16.70
2023-04-24T07:46:49.536Z,16.85
2023-04-24T07:49:18.505Z,16.60
2023-04-24T07:51:47.339Z,16.47
2023-04-24T07:54:14.247Z,16.44
2023-04-24T07:56:43.080Z,16.55
2023-04-24T07:59:11.108Z,16.37
2023-04-24T08:01:38.573Z,16.36
2023-04-24T08:04:08.084Z,16.29
2023-04-24T08:06:35.768Z,16.41
2023-04-24T08:09:05.062Z,16.18
2023-04-24T08:11:33.046Z,16.00
2023-04-24T08:13:59.938Z,16.02
2023-04-24T08:16:29.792Z,15.79
2023-04-24T08:18:56.744Z,15.70
2023-04-24T08:21:24.399Z,15.73
2023-04-24T08:23:54.231Z,15.76
2023-04-24T08:26:21.713Z,15.73
2023-04-24T08:28:48.625Z,15.70
2023-04-24T08:31:15.769Z,15.52
2023-04-24T08:33:42.647Z,15.40
2023-04-24T08:36:09.887Z,15.39
2023-04-24T08:38:37.196Z,15.50
2023-04-24T08:41:05.634Z,15.63
2023-04-24T08:43:34.130Z,15.34
2023-04-24T08:46:01.876Z,15.29
2023-04-24T08:48:31.825Z,15.13
2023-04-24T08:51:00.307Z,15.04
2023-04-24T08:53:29.976Z,15.00
2023-04-24T08:55:57.850Z,14.77
2023-04-24T08:58:28.280Z,14.61
2023-04-24T09:00:56.040Z,14.50
2023-04-24T09:03:27.476Z,14.39
2023-04-24T09:05:56.305Z,14.26
2023-04-24T09:08:27.718Z,14.22
2023-04-24T09:10:55.394Z,14.19
2023-04-24T09:13:22.426Z,14.04
2023-04-24T09:15:49.915Z,13.98
2023-04-24T09:18:16.899Z,13.58
2023-04-24T09:21:02.981Z,13.28
2023-04-24T09:23:30.880Z,13.17
2023-04-24T09:25:59.361Z,13.01
2023-04-24T09:28:27.113Z,12.89
2023-04-24T09:31:06.628Z,12.85
2023-04-24T09:33:34.204Z,12.76
2023-04-24T09:36:01.586Z,12.71
2023-04-24T09:38:32.454Z,12.66
2023-04-24T09:41:04.625Z,12.71
2023-04-24T09:43:34.367Z,12.69
2023-04-24T09:46:05.635Z,12.78
2023-04-24T09:48:33.388Z,12.79
2023-04-24T09:51:02.536Z,12.82
2023-04-24T09:53:30.663Z,12.85
2023-04-24T09:56:08.435Z,12.90
2023-04-24T09:58:36.856Z,12.94
2023-04-24T10:01:04.505Z,12.95
2023-04-24T10:03:32.345Z,12.96
2023-04-24T10:06:00.401Z,12.95
2023-04-24T10:08:27.792Z,12.90
2023-04-24T10:10:57.356Z,12.95
2023-04-24T10:13:24.227Z,12.94
2023-04-24T10:15:51.807Z,13.00
2023-04-24T10:18:19.004Z,13.03
2023-04-24T10:20:46.573Z,13.11
2023-04-24T10:23:13.733Z,13.12
2023-04-24T10:25:43.368Z,13.18
2023-04-24T10:28:11.342Z,13.21
2023-04-24T10:30:40.165Z,13.21
2023-04-24T10:33:08.929Z,13.16
2023-04-24T10:35:38.749Z,13.26
2023-04-24T10:38:16.848Z,13.21
2023-04-24T10:40:45.199Z,13.14
2023-04-24T10:43:17.440Z,13.26
2023-04-24T10:46:03.964Z,13.33
2023-04-24T10:48:31.134Z,13.41
2023-04-24T10:50:58.289Z,13.38
2023-04-24T10:53:29.152Z,13.48
2023-04-24T10:55:59.418Z,13.43
2023-04-24T10:58:36.665Z,13.49
2023-04-24T11:01:06.360Z,13.60
2023-04-24T11:03:35.046Z,13.56
2023-04-24T11:06:04.051Z,13.54
2023-04-24T11:08:32.356Z,13.50
2023-04-24T11:10:59.620Z,13.51
2023-04-24T11:13:27.282Z,13.60
2023-04-24T11:16:13.750Z,13.58
2023-04-24T11:18:46.803Z,13.60
2023-04-24T11:21:14.123Z,13.56
2023-04-24T11:23:42.058Z,13.53
2023-04-24T11:26:20.917Z,13.53
2023-04-24T11:28:48.384Z,13.45
2023-04-24T11:31:38.762Z,13.34
2023-04-24T11:34:09.771Z,13.18
2023-04-24T11:36:37.430Z,13.13
2023-04-24T11:39:04.692Z,13.07
2023-04-24T11:41:32.005Z,12.94
2023-04-24T11:43:58.930Z,12.87
2023-04-24T11:46:31.087Z,12.85
2023-04-24T11:48:58.488Z,12.88
2023-04-24T11:51:33.863Z,12.78
2023-04-24T11:54:08.845Z,12.65
2023-04-24T11:56:36.371Z,12.53
2023-04-24T11:59:05.531Z,12.65
2023-04-24T12:01:43.457Z,12.63
2023-04-24T12:04:10.648Z,12.73
2023-04-24T12:06:38.442Z,12.82
2023-04-24T12:09:17.422Z,12.81
2023-04-24T12:11:58.949Z,12.83
2023-04-24T12:14:26.324Z,12.84
2023-04-24T12:16:53.775Z,12.89
2023-04-24T12:19:24.144Z,12.87
2023-04-24T12:22:06.626Z,13.02
2023-04-24T12:24:36.047Z,13.18
2023-04-24T12:27:05.929Z,13.39
2023-04-24T12:29:33.179Z,13.56
2023-04-24T12:32:00.546Z,13.74
2023-04-24T12:34:27.546Z,13.86
2023-04-24T12:36:54.889Z,13.89
2023-04-24T12:39:24.644Z,14.14
2023-04-24T12:42:01.052Z,14.22
2023-04-24T12:44:35.716Z,14.46
2023-04-24T12:47:02.984Z,14.52
2023-04-24T12:49:33.069Z,14.43
2023-04-24T12:52:02.614Z,14.34
2023-04-24T12:54:33.510Z,14.35
2023-04-24T12:57:01.372Z,14.35
2023-04-24T12:59:30.627Z,14.28
2023-04-24T13:01:59.451Z,14.17
2023-04-24T13:04:26.444Z,14.15
2023-04-24T13:06:55.967Z,14.06
2023-04-24T13:09:22.904Z,14.01
2023-04-24T13:11:50.381Z,13.96
2023-04-24T13:14:20.056Z,13.96
2023-04-24T13:16:47.388Z,13.99
2023-04-24T13:19:14.294Z,13.89
2023-04-24T13:21:41.772Z,13.91
2023-04-24T13:24:08.969Z,13.96
2023-04-24T13:26:38.611Z,14.08
2023-04-24T13:29:05.764Z,14.12
2023-04-24T13:31:33.217Z,14.06
2023-04-24T13:34:06.297Z,14.24
2023-04-24T13:36:33.799Z,14.22
2023-04-24T13:39:05.644Z,14.27
2023-04-24T13:41:34.322Z,14.25
2023-04-24T13:44:01.241Z,14.33
2023-04-24T13:46:30.866Z,14.24
2023-04-24T13:49:00.493Z,14.27
2023-04-24T13:51:30.557Z,14.19
2023-04-24T13:53:57.486Z,14.13
2023-04-24T13:56:24.739Z,14.02
2023-04-24T13:58:53.234Z,14.05
2023-04-24T14:01:25.850Z,14.05
2023-04-24T14:03:53.785Z,13.99
2023-04-24T14:06:21.326Z,13.92
2023-04-24T14:08:48.728Z,13.76
2023-04-24T14:11:18.603Z,13.62
2023-04-24T14:13:46.366Z,13.41
2023-04-24T14:16:14.109Z,13.13
2023-04-24T14:18:41.241Z,12.99
2023-04-24T14:21:08.900Z,12.96
2023-04-24T14:23:38.380Z,12.93
2023-04-24T14:26:05.886Z,12.88
2023-04-24T14:28:33.483Z,12.87
2023-04-24T14:31:00.734Z,12.83
2023-04-24T14:33:27.576Z,12.85
2023-04-24T14:35:55.132Z,12.87
2023-04-24T14:38:22.977Z,12.95
2023-04-24T14:41:05.702Z,13.07
2023-04-24T14:43:36.428Z,13.19
2023-04-24T14:46:04.324Z,13.39
2023-04-24T14:48:31.641Z,13.57
2023-04-24T14:50:59.553Z,13.77
2023-04-24T14:53:26.506Z,13.85
2023-04-24T14:55:54.598Z,13.88
2023-04-24T14:58:21.594Z,13.79
2023-04-24T15:00:51.106Z,13.86
2023-04-24T15:03:18.750Z,13.95
2023-04-24T15:05:46.280Z,13.97
2023-04-24T15:08:13.189Z,13.96
2023-04-24T15:10:40.488Z,13.94
2023-04-24T15:13:07.402Z,14.05
2023-04-24T15:15:34.595Z,14.00
2023-04-24T15:18:01.609Z,13.97
2023-04-24T15:20:28.874Z,13.82
2023-04-24T15:22:55.916Z,13.92
2023-04-24T15:25:23.309Z,13.94
2023-04-24T15:27:50.232Z,13.83
2023-04-24T15:30:20.250Z,13.73
2023-04-24T15:32:47.234Z,13.76
2023-04-24T15:35:14.513Z,13.73
2023-04-24T15:37:41.570Z,13.62
2023-04-24T15:40:09.524Z,13.47
2023-04-24T15:42:36.549Z,13.43
2023-04-24T15:45:04.562Z,13.27
2023-04-24T15:47:32.966Z,12.96
2023-04-24T15:50:00.207Z,12.46
2023-04-24T15:52:27.236Z,12.10
2023-04-24T15:54:54.916Z,11.93
2023-04-24T15:57:21.941Z,11.73
2023-04-24T15:59:50.529Z,11.64
2023-04-24T16:02:21.147Z,11.65
2023-04-24T16:04:49.788Z,11.46
2023-04-24T16:07:18.368Z,11.31
2023-04-24T16:09:45.824Z,11.18
2023-04-24T16:12:13.778Z,11.13
2023-04-24T16:14:41.657Z,11.06
2023-04-24T16:17:08.841Z,11.00
2023-04-24T16:19:39.091Z,11.01
2023-04-24T16:22:06.532Z,11.00
2023-04-24T16:24:35.415Z,10.94
2023-04-24T16:27:03.292Z,10.89
2023-04-24T16:29:31.178Z,10.83
2023-04-24T16:31:58.204Z,10.82
2023-04-24T16:34:25.648Z,10.79
2023-04-24T16:36:55.270Z,10.79
2023-04-24T16:39:22.932Z,10.77
2023-04-24T16:41:49.874Z,10.75
2023-04-24T16:44:17.148Z,10.76
2023-04-24T16:46:44.166Z,10.74
2023-04-24T16:49:11.444Z,10.76
2023-04-24T16:51:38.540Z,10.75
2023-04-24T16:54:06.054Z,10.74
2023-04-24T16:56:33.281Z,10.70
2023-04-24T16:59:00.723Z,10.70
2023-04-24T17:01:28.835Z,10.69
2023-04-24T17:04:00.765Z,10.66
2023-04-24T17:06:28.815Z,10.67
2023-04-24T17:08:56.203Z,10.61
2023-04-24T17:11:23.275Z,10.60
2023-04-24T17:13:51.512Z,10.56
2023-04-24T17:16:18.512Z,10.59
2023-04-24T17:18:46.217Z,10.59
2023-04-24T17:21:13.237Z,10.58
2023-04-24T17:23:43.248Z,10.55
2023-04-24T17:26:12.751Z,10.53
2023-04-24T17:28:40.500Z,10.53
2023-04-24T17:31:08.101Z,10.52
2023-04-24T17:33:36.313Z,10.48
2023-04-24T17:36:07.769Z,10.42
2023-04-24T17:38:36.079Z,10.39
2023-04-24T17:41:04.129Z,10.38
2023-04-24T17:43:33.074Z,10.36
2023-04-24T17:46:01.638Z,10.36
2023-04-24T17:48:29.470Z,10.28
2023-04-24T17:50:57.171Z,10.27
2023-04-24T17:53:25.917Z,10.25
2023-04-24T17:55:54.760Z,10.22
2023-04-24T17:58:22.737Z,10.19
2023-04-24T18:00:50.788Z,10.19
2023-04-24T18:03:21.007Z,10.17
2023-04-24T18:05:48.268Z,10.18
2023-04-24T18:08:16.247Z,10.16
2023-04-24T18:10:44.980Z,10.16
2023-04-24T18:13:12.503Z,10.15
2023-04-24T18:15:43.838Z,10.11
2023-04-24T18:18:15.579Z,10.17
2023-04-24T18:20:46.868Z,10.17
2023-04-24T18:23:14.629Z,10.19
2023-04-24T18:25:45.000Z,10.17
2023-04-24T18:28:13.037Z,10.21
2023-04-24T18:30:41.116Z,10.20
2023-04-24T18:33:08.609Z,10.25
2023-04-24T18:35:35.834Z,10.25
2023-04-24T18:38:07.620Z,10.30
2023-04-24T18:40:35.371Z,10.34
2023-04-24T18:43:02.954Z,10.32
2023-04-24T18:45:32.444Z,10.32
2023-04-24T18:48:00.226Z,10.27
2023-04-24T18:50:29.976Z,10.21
2023-04-24T18:52:59.347Z,10.17
2023-04-24T18:55:28.144Z,10.18
2023-04-24T18:57:55.809Z,10.13
2023-04-24T19:00:23.610Z,10.10
2023-04-24T19:02:53.595Z,10.09
2023-04-24T19:05:21.063Z,10.10
2023-04-24T19:07:49.335Z,10.09
2023-04-24T19:10:17.459Z,10.04
2023-04-24T19:12:45.634Z,10.04
2023-04-24T19:15:13.159Z,10.04
2023-04-24T19:17:41.260Z,10.06
2023-04-24T19:20:09.102Z,10.06
2023-04-24T19:22:39.569Z,10.07
2023-04-24T19:25:11.769Z,10.08
2023-04-24T19:27:40.177Z,10.10
2023-04-24T19:30:08.462Z,10.10
2023-04-24T19:32:36.332Z,10.09
2023-04-24T19:35:06.476Z,10.08
2023-04-24T19:37:37.151Z,10.06
2023-04-24T19:40:05.000Z,10.09
2023-04-24T19:42:43.409Z,10.06
2023-04-24T19:45:15.158Z,10.07
2023-04-24T19:47:43.768Z,10.10
2023-04-24T19:50:15.721Z,10.08
2023-04-24T19:52:46.456Z,10.10
2023-04-24T19:55:14.324Z,10.11
2023-04-24T19:57:42.708Z,10.09
2023-04-24T20:00:10.249Z,10.08
2023-04-24T20:02:38.172Z,10.03
2023-04-24T20:05:05.863Z,10.02
2023-04-24T20:07:36.651Z,10.03
2023-04-24T20:10:06.039Z,10.01
2023-04-24T20:12:34.552Z,10.02
2023-04-24T20:15:02.529Z,10.03
2023-04-24T20:17:33.379Z,10.00
2023-04-24T20:20:00.536Z,9.97
2023-04-24T20:22:28.049Z,10.01
2023-04-24T20:24:55.039Z,10.02
2023-04-24T20:27:22.757Z,10.03
2023-04-24T20:29:52.189Z,10.06
2023-04-24T20:32:21.966Z,10.06
2023-04-24T20:34:48.980Z,10.08
2023-04-24T20:37:16.457Z,10.11
2023-04-24T20:39:44.931Z,10.11
2023-04-24T20:42:13.382Z,10.14
2023-04-24T20:44:41.595Z,10.13
2023-04-24T20:47:11.397Z,10.15
2023-04-24T20:49:38.292Z,10.09
2023-04-24T20:52:06.527Z,10.14
2023-04-24T20:54:33.676Z,10.22
2023-04-24T20:57:01.965Z,10.27
2023-04-24T20:59:28.835Z,10.33
2023-04-24T21:01:56.155Z,10.34
2023-04-24T21:04:23.112Z,10.37
2023-04-24T21:06:50.762Z,10.31
2023-04-24T21:09:17.841Z,10.29
2023-04-24T21:11:45.079Z,10.28
2023-04-24T21:14:12.000Z,10.27
2023-04-24T21:16:39.304Z,10.27
2023-04-24T21:19:06.156Z,10.23
2023-04-24T21:21:34.130Z,10.21
2023-04-24T21:24:01.791Z,10.20
2023-04-24T21:26:29.001Z,10.22
2023-04-24T21:28:56.056Z,10.19
2023-04-24T21:31:23.285Z,10.23
2023-04-24T21:33:50.442Z,10.22
2023-04-24T21:36:17.741Z,10.19
2023-04-24T21:38:44.675Z,10.17
2023-04-24T21:41:11.926Z,10.16
2023-04-24T21:43:44.697Z,10.18
2023-04-24T21:46:14.780Z,10.26
2023-04-24T21:48:44.149Z,10.29
2023-04-24T21:51:14.531Z,10.30
2023-04-24T21:53:41.554Z,10.31
2023-04-24T21:56:09.198Z,10.31
2023-04-24T21:58:36.540Z,10.32
2023-04-24T22:01:03.907Z,10.30
2023-04-24T22:03:31.036Z,10.28
2023-04-24T22:05:58.549Z,10.28
2023-04-24T22:08:25.629Z,10.23
2023-04-24T22:10:53.504Z,10.23
2023-04-24T22:13:22.764Z,10.15
2023-04-24T22:15:52.846Z,10.18
2023-04-24T22:18:19.836Z,10.12
2023-04-24T22:20:47.344Z,10.12
2023-04-24T22:23:14.467Z,10.14
2023-04-24T22:25:41.727Z,10.13
2023-04-24T22:28:08.553Z,10.14
2023-04-24T22:30:35.829Z,10.15
2023-04-24T22:33:03.029Z,10.11
2023-04-24T22:35:30.319Z,10.14
2023-04-24T22:37:57.320Z,10.16
2023-04-24T22:40:25.447Z,10.15
2023-04-24T22:42:52.843Z,10.11
2023-04-24T22:45:23.669Z,10.13
2023-04-24T22:47:50.931Z,10.10
2023-04-24T22:50:20.957Z,10.06
2023-04-24T22:52:48.142Z,10.08
2023-04-24T22:55:15.343Z,10.09
2023-04-24T22:57:42.388Z,10.05
2023-04-24T23:00:11.471Z,10.03
2023-04-24T23:02:42.209Z,9.97
2023-04-24T23:05:10.403Z,9.97
2023-04-24T23:07:39.465Z,9.94
2023-04-24T23:10:07.029Z,9.94
2023-04-24T23:12:33.928Z,9.86
2023-04-24T23:15:01.418Z,9.83
2023-04-24T23:17:28.389Z,9.84
2023-04-24T23:19:58.042Z,9.83
2023-04-24T23:22:24.891Z,9.77
2023-04-24T23:24:52.073Z,9.76
2023-04-24T23:27:18.955Z,9.76
2023-04-24T23:29:48.534Z,9.71
2023-04-24T23:32:15.700Z,9.69
2023-04-24T23:34:45.799Z,9.67
2023-04-24T23:37:12.733Z,9.66
2023-04-24T23:39:39.900Z,9.66
2023-04-24T23:42:07.801Z,9.62
2023-04-24T23:44:35.374Z,9.66
2023-04-24T23:47:02.236Z,9.66
2023-04-24T23:49:29.439Z,9.66
2023-04-24T23:51:56.589Z,9.68
2023-04-24T23:54:26.473Z,9.65
2023-04-24T23:56:53.388Z,9.64
2023-04-24T23:59:21.631Z,9.62
